Chieftan — FNSB — position and weather

sailwx.info

Track history (hours):
 
Tides and Currents Weather Stations Pressure Air Temp Water Temp Dewpoint Dewpoint Depression Visibility Wind Speed Wind Dir Waves Ship Positions

Chieftan

Last reported at 2016-Jul-08 00:32 UTC. Time now 2016-Aug-26 01:31 UTC.
Position N 16°14' W 061°32'.
Warning: this ship's position is 49 days out of date.

Length 25 m; draft 3.8 m.

Type: Tug. MMSI: 347001900.

Date/timePositionNaut miles runAvg speedWind from/ knotsBaromVisibWave heightAir tempDewpointWater temp
2016-Jul-08 00:32N 16°14' W 061°32'0 0.4
2016-Jul-07 23:17N 16°14' W 061°33'0 0.0
2016-Jul-07 22:33N 16°14' W 061°33'0 0.0
2016-Jul-07 19:33N 16°14' W 061°33'0 0.0
2016-Jul-07 18:33N 16°14' W 061°33'0 0.0
2016-Jul-07 17:29N 16°14' W 061°33'0 0.0
2016-Jul-07 16:31N 16°14' W 061°33'0 0.0
2016-Jul-07 15:30N 16°14' W 061°33'0 0.0
2016-Jul-07 14:31N 16°14' W 061°33'0 0.0
2016-Jul-07 13:33N 16°14' W 061°33'0 0.0
2016-Jul-07 12:27N 16°14' W 061°33'0 0.0
2016-Jul-07 11:14N 16°14' W 061°33'0 0.0
2016-Jul-07 10:29N 16°14' W 061°33'0 0.0
2016-Jul-07 09:33N 16°14' W 061°33'0 0.0
2016-Jul-07 00:11N 16°14' W 061°33'0 0.0
2016-Jul-06 23:34N 16°14' W 061°33'0 0.0
2016-Jul-06 11:32N 16°14' W 061°33'0 0.0
2016-Jul-05 21:06N 16°14' W 061°33'0 0.0
2016-Jul-05 20:19N 16°14' W 061°33'0 0.0
2016-Jul-05 19:32N 16°14' W 061°33'0 0.0
2016-Jul-05 18:26N 16°14' W 061°33'1 0.6
2016-Jul-05 17:30N 16°14' W 061°32'16 3.8
2016-Jul-05 13:12N 15°58' W 061°36'8 4.5
2016-Jul-05 11:33N 15°56' W 061°43'28 6.6
2016-Jul-05 07:18N 16°17' W 062°02'4 5.7
2016-Jul-05 06:33N 16°20' W 062°05'11 5.5
2016-Jul-05 04:33N 16°29' W 062°12'6 5.7
2016-Jul-05 03:33N 16°34' W 062°16'6 5.8
2016-Jul-05 02:33N 16°38' W 062°19'6 5.9
2016-Jul-05 01:33N 16°43' W 062°23'  
2016-Jul-01 17:11N 16°58' W 062°08'4 5.0
2016-Jul-01 16:28N 16°55' W 062°07'5 5.2
2016-Jul-01 15:33N 16°50' W 062°05'5 5.3
2016-Jul-01 14:33N 16°45' W 062°04'5 5.2
2016-Jul-01 13:33N 16°40' W 062°02'5 5.3
2016-Jul-01 12:34N 16°35' W 062°00'7 6.7
2016-Jul-01 11:33N 16°29' W 061°58'8 7.8
2016-Jul-01 10:33N 16°22' W 061°55'24 7.9
2016-Jul-01 07:30N 15°59' W 061°47'9 7.7
2016-Jul-01 06:16N 15°50' W 061°43'  
Track history (hours):
 
Tides and Currents Weather Stations Pressure Air Temp Water Temp Dewpoint Dewpoint Depression Visibility Wind Speed Wind Dir Waves Ship Positions

Chieftan

Last reported at 2016-Jul-08 00:32 UTC. Time now 2016-Aug-26 01:31 UTC.
Position N 16°14' W 061°32'.
Warning: this ship's position is 49 days out of date.

Length 25 m; draft 3.8 m.

Type: Tug. MMSI: 347001900.

Date/timePositionNaut miles runAvg speedWind from/ knotsBaromVisibWave heightAir tempDewpointWater temp
2016-Jul-08 00:32N 16°14' W 061°32'0 0.4
2016-Jul-07 23:17N 16°14' W 061°33'0 0.0
2016-Jul-07 22:33N 16°14' W 061°33'0 0.0
2016-Jul-07 19:33N 16°14' W 061°33'0 0.0
2016-Jul-07 18:33N 16°14' W 061°33'0 0.0
2016-Jul-07 17:29N 16°14' W 061°33'0 0.0
2016-Jul-07 16:31N 16°14' W 061°33'0 0.0
2016-Jul-07 15:30N 16°14' W 061°33'0 0.0
2016-Jul-07 14:31N 16°14' W 061°33'0 0.0
2016-Jul-07 13:33N 16°14' W 061°33'0 0.0
2016-Jul-07 12:27N 16°14' W 061°33'0 0.0
2016-Jul-07 11:14N 16°14' W 061°33'0 0.0
2016-Jul-07 10:29N 16°14' W 061°33'0 0.0
2016-Jul-07 09:33N 16°14' W 061°33'0 0.0
2016-Jul-07 00:11N 16°14' W 061°33'0 0.0
2016-Jul-06 23:34N 16°14' W 061°33'0 0.0
2016-Jul-06 11:32N 16°14' W 061°33'0 0.0
2016-Jul-05 21:06N 16°14' W 061°33'0 0.0
2016-Jul-05 20:19N 16°14' W 061°33'0 0.0
2016-Jul-05 19:32N 16°14' W 061°33'0 0.0
2016-Jul-05 18:26N 16°14' W 061°33'1 0.6
2016-Jul-05 17:30N 16°14' W 061°32'16 3.8
2016-Jul-05 13:12N 15°58' W 061°36'8 4.5
2016-Jul-05 11:33N 15°56' W 061°43'28 6.6
2016-Jul-05 07:18N 16°17' W 062°02'4 5.7
2016-Jul-05 06:33N 16°20' W 062°05'11 5.5
2016-Jul-05 04:33N 16°29' W 062°12'6 5.7
2016-Jul-05 03:33N 16°34' W 062°16'6 5.8
2016-Jul-05 02:33N 16°38' W 062°19'6 5.9
2016-Jul-05 01:33N 16°43' W 062°23'  
2016-Jul-01 17:11N 16°58' W 062°08'4 5.0
2016-Jul-01 16:28N 16°55' W 062°07'5 5.2
2016-Jul-01 15:33N 16°50' W 062°05'5 5.3
2016-Jul-01 14:33N 16°45' W 062°04'5 5.2
2016-Jul-01 13:33N 16°40' W 062°02'5 5.3
2016-Jul-01 12:34N 16°35' W 062°00'7 6.7
2016-Jul-01 11:33N 16°29' W 061°58'8 7.8
2016-Jul-01 10:33N 16°22' W 061°55'24 7.9
2016-Jul-01 07:30N 15°59' W 061°47'9 7.7
2016-Jul-01 06:16N 15°50' W 061°43'  

Dump ship's entire track history